createdAt,value
2022-09-28T00:01:07.806Z,98298.41
2022-09-28T00:06:06.675Z,98283.97
2022-09-28T00:11:04.768Z,98275.88
2022-09-28T00:16:10.901Z,98273.22
2022-09-28T00:21:13.217Z,98255.88
2022-09-28T00:26:09.482Z,98258.63
2022-09-28T00:31:05.831Z,98255.31
2022-09-28T00:36:02.173Z,98249.56
2022-09-28T00:40:59.543Z,98248.19
2022-09-28T00:46:02.746Z,98230.06
2022-09-28T00:51:03.949Z,98225.28
2022-09-28T00:56:04.769Z,98215.00
2022-09-28T01:01:01.218Z,98201.53
2022-09-28T01:06:00.228Z,98202.22
2022-09-28T01:10:59.110Z,98194.09
2022-09-28T01:16:03.384Z,98186.72
2022-09-28T01:21:05.337Z,98186.22
2022-09-28T01:26:36.915Z,98184.72
2022-09-28T01:31:36.271Z,98185.00
2022-09-28T01:36:45.812Z,98190.22
2022-09-28T01:41:46.190Z,98195.72
2022-09-28T01:46:46.587Z,98190.22
2022-09-28T01:51:58.409Z,98193.72
2022-09-28T01:57:00.398Z,98192.75
2022-09-28T02:02:02.172Z,98184.28
2022-09-28T02:07:12.378Z,98190.19
2022-09-28T02:12:25.513Z,98186.34
2022-09-28T02:17:21.904Z,98182.47
2022-09-28T02:22:28.404Z,98188.16
2022-09-28T02:27:51.487Z,98189.97
2022-09-28T02:32:53.510Z,98189.00
2022-09-28T02:37:50.350Z,98188.31
2022-09-28T02:43:11.333Z,98183.84
2022-09-28T02:48:36.127Z,98189.81
2022-09-28T02:53:47.843Z,98189.75
2022-09-28T02:59:15.790Z,98190.56
2022-09-28T03:04:32.499Z,98192.38
2022-09-28T03:09:42.230Z,98203.63
2022-09-28T03:14:38.764Z,98194.59
2022-09-28T03:19:36.681Z,98195.69
2022-09-28T03:24:32.949Z,98187.75
2022-09-28T03:29:31.385Z,98191.56
2022-09-28T03:34:27.655Z,98199.56
2022-09-28T03:39:24.011Z,98195.00
2022-09-28T03:44:20.638Z,98189.91
2022-09-28T03:49:17.112Z,98191.84
2022-09-28T03:54:13.722Z,98193.81
2022-09-28T03:59:10.099Z,98194.97
2022-09-28T04:04:06.504Z,98193.13
2022-09-28T04:09:03.014Z,98199.09
2022-09-28T04:13:59.370Z,98190.78
2022-09-28T04:18:55.757Z,98192.06
2022-09-28T04:23:53.091Z,98190.88
2022-09-28T04:29:08.122Z,98197.25
2022-09-28T04:34:04.442Z,98200.91
2022-09-28T04:39:00.961Z,98199.47
2022-09-28T04:43:57.243Z,98199.94
2022-09-28T04:48:53.559Z,98196.47
2022-09-28T04:53:50.107Z,98203.50
2022-09-28T04:58:51.748Z,98209.69
2022-09-28T05:03:50.878Z,98207.88
2022-09-28T05:08:47.272Z,98213.31
2022-09-28T05:13:45.506Z,98219.81
2022-09-28T05:18:42.373Z,98227.28
2022-09-28T05:23:40.189Z,98230.56
2022-09-28T05:28:36.614Z,98228.72
2022-09-28T05:33:33.485Z,98232.34
2022-09-28T05:38:30.333Z,98228.03
2022-09-28T05:43:26.721Z,98234.69
2022-09-28T05:48:23.148Z,98229.41
2022-09-28T05:53:19.991Z,98228.13
2022-09-28T05:58:17.042Z,98235.75
2022-09-28T06:03:14.504Z,98235.59
2022-09-28T06:08:11.499Z,98234.47
2022-09-28T06:13:08.589Z,98241.81
2022-09-28T06:18:09.526Z,98242.47
2022-09-28T06:23:05.902Z,98244.75
2022-09-28T06:28:06.597Z,98245.97
2022-09-28T06:33:02.923Z,98241.72
2022-09-28T06:38:00.989Z,98258.28
2022-09-28T06:42:59.458Z,98256.63
2022-09-28T06:48:00.757Z,98263.47
2022-09-28T06:52:57.151Z,98267.59
2022-09-28T06:58:04.837Z,98270.38
2022-09-28T07:03:11.157Z,98269.41
2022-09-28T07:08:07.539Z,98271.41
2022-09-28T07:13:05.242Z,98282.31
2022-09-28T07:18:04.223Z,98282.38
2022-09-28T07:23:15.284Z,98295.38
2022-09-28T07:28:16.274Z,98290.41
2022-09-28T07:33:15.821Z,98288.34
2022-09-28T07:38:13.153Z,98289.69
2022-09-28T07:43:09.515Z,98294.47
2022-09-28T07:48:05.919Z,98298.53
2022-09-28T07:53:02.341Z,98301.34
2022-09-28T07:58:02.111Z,98297.97
2022-09-28T09:38:58.189Z,98316.41
2022-09-28T09:44:16.299Z,98329.75
2022-09-28T09:49:34.438Z,98334.56
2022-09-28T09:54:42.649Z,98333.66
2022-09-28T09:59:41.822Z,98344.38
2022-09-28T10:04:43.103Z,98347.81
2022-09-28T10:09:46.649Z,98342.75
2022-09-28T10:14:43.544Z,98343.00
2022-09-28T10:19:39.892Z,98341.09
2022-09-28T10:24:41.412Z,98349.75
2022-09-28T10:29:59.923Z,98343.84
2022-09-28T10:35:11.699Z,98358.63
2022-09-28T10:40:30.322Z,98367.25
2022-09-28T10:45:27.437Z,98367.72
2022-09-28T10:50:27.457Z,98375.72
2022-09-28T10:55:32.143Z,98382.53
2022-09-28T11:00:37.799Z,98373.56
2022-09-28T11:05:34.435Z,98366.88
2022-09-28T11:10:32.764Z,98383.03
2022-09-28T11:15:32.178Z,98385.53
2022-09-28T11:20:30.342Z,98380.38
2022-09-28T11:25:28.952Z,98389.34
2022-09-28T11:30:38.188Z,98391.84
2022-09-28T11:35:46.950Z,98386.31
2022-09-28T11:41:22.349Z,98386.56
2022-09-28T11:46:34.171Z,98392.06
2022-09-28T11:51:34.396Z,98397.13
2022-09-28T11:56:43.745Z,98395.53
2022-09-28T12:01:51.683Z,98407.69
2022-09-28T12:06:58.981Z,98401.94
2022-09-28T12:12:01.607Z,98403.88
2022-09-28T12:17:24.099Z,98412.81
2022-09-28T12:22:34.758Z,98406.91
2022-09-28T12:27:50.860Z,98420.75
2022-09-28T12:32:56.020Z,98415.59
2022-09-28T12:38:33.049Z,98419.25
2022-09-28T12:43:40.481Z,98427.69
2022-09-28T12:49:36.693Z,98425.88
2022-09-28T12:54:40.210Z,98421.25
2022-09-28T12:59:50.245Z,98424.88
2022-09-28T13:04:54.910Z,98432.84
2022-09-28T13:10:03.054Z,98436.00
2022-09-28T13:15:33.854Z,98444.00
2022-09-28T13:21:03.860Z,98439.84
2022-09-28T13:26:28.448Z,98442.16
2022-09-28T13:31:33.195Z,98445.16
2022-09-28T13:36:32.234Z,98444.66
2022-09-28T13:41:31.614Z,98445.16
2022-09-28T13:46:44.799Z,98445.31
2022-09-28T13:52:02.986Z,98446.16
2022-09-28T13:57:19.536Z,98454.13
2022-09-28T14:02:28.841Z,98454.13
2022-09-28T14:07:35.792Z,98459.44
2022-09-28T14:12:35.103Z,98466.25
2022-09-28T14:18:14.175Z,98463.47
2022-09-28T14:23:24.206Z,98457.16
2022-09-28T14:28:57.217Z,98463.47
2022-09-28T14:33:56.921Z,98459.97
2022-09-28T14:39:12.343Z,98462.09
2022-09-28T14:44:11.522Z,98468.00
2022-09-28T14:49:17.394Z,98468.81
2022-09-28T14:54:25.435Z,98482.25
2022-09-28T14:59:22.846Z,98476.19
2022-09-28T15:04:20.312Z,98472.56
2022-09-28T15:09:35.024Z,98474.78
2022-09-28T15:14:42.185Z,98477.97
2022-09-28T15:19:57.376Z,98476.25
2022-09-28T15:25:13.206Z,98481.31
2022-09-28T15:30:22.372Z,98482.97
2022-09-28T15:35:26.921Z,98484.88
2022-09-28T15:40:37.638Z,98494.59
2022-09-28T15:45:39.880Z,98492.88
2022-09-28T15:50:36.670Z,98501.94
2022-09-28T15:55:42.285Z,98497.19
2022-09-28T16:00:39.559Z,98512.97
2022-09-28T16:05:49.382Z,98512.78
2022-09-28T16:11:03.313Z,98519.63
2022-09-28T16:16:00.260Z,98510.72
2022-09-28T16:21:28.822Z,98517.75
2022-09-28T16:26:32.369Z,98516.75
2022-09-28T16:31:34.337Z,98525.91
2022-09-28T16:36:43.345Z,98529.81
2022-09-28T16:41:44.133Z,98533.31
2022-09-28T16:46:40.665Z,98539.06
2022-09-28T16:51:40.001Z,98529.00
2022-09-28T16:56:37.005Z,98539.41
2022-09-28T17:01:33.401Z,98538.28
2022-09-28T17:06:29.929Z,98537.53
2022-09-28T17:11:26.259Z,98538.81
2022-09-28T17:16:37.218Z,98534.72
2022-09-28T17:21:39.300Z,98533.91
2022-09-28T17:26:35.992Z,98534.44
2022-09-28T17:31:32.260Z,98535.28
2022-09-28T17:36:30.319Z,98537.69
2022-09-28T17:41:26.662Z,98545.72
2022-09-28T17:46:34.871Z,98546.22
2022-09-28T17:51:34.653Z,98540.97
2022-09-28T17:56:32.692Z,98540.22
2022-09-28T18:01:33.943Z,98539.31
2022-09-28T18:06:33.384Z,98553.44
2022-09-28T18:11:31.142Z,98551.41
2022-09-28T18:16:28.648Z,98547.56
2022-09-28T18:21:25.174Z,98555.81
2022-09-28T18:26:21.489Z,98558.25
2022-09-28T18:31:19.102Z,98570.78
2022-09-28T18:36:15.470Z,98575.53
2022-09-28T18:41:15.624Z,98575.50
2022-09-28T18:46:12.263Z,98586.44
2022-09-28T18:51:10.967Z,98589.38
2022-09-28T18:56:09.342Z,98587.56
2022-09-28T19:01:29.491Z,98594.69
2022-09-28T19:06:27.968Z,98593.88
2022-09-28T19:11:25.439Z,98598.13
2022-09-28T19:16:25.478Z,98603.59
2022-09-28T19:21:21.842Z,98600.41
2022-09-28T19:26:23.459Z,98601.56
2022-09-28T19:31:20.242Z,98605.59
2022-09-28T19:36:19.346Z,98601.47
2022-09-28T19:41:39.130Z,98621.06
2022-09-28T19:46:38.922Z,98618.44
2022-09-28T19:51:35.250Z,98634.97
2022-09-28T19:56:32.887Z,98629.69
2022-09-28T20:01:30.839Z,98634.00
2022-09-28T20:06:28.029Z,98644.59
2022-09-28T20:11:25.570Z,98651.97
2022-09-28T20:16:24.406Z,98648.03
2022-09-28T20:21:26.449Z,98663.06
2022-09-28T20:26:23.651Z,98657.50
2022-09-28T20:31:24.858Z,98670.44
2022-09-28T20:36:23.248Z,98675.44
2022-09-28T20:41:22.870Z,98667.25
2022-09-28T20:46:21.167Z,98671.81
2022-09-28T20:51:19.918Z,98674.19
2022-09-28T20:56:47.974Z,98673.78
2022-09-28T21:01:44.487Z,98675.75
2022-09-28T21:06:42.087Z,98682.69
2022-09-28T21:11:38.790Z,98679.22
2022-09-28T21:16:35.502Z,98687.84
2022-09-28T21:21:32.181Z,98687.28
2022-09-28T21:26:31.067Z,98695.09
2022-09-28T21:31:31.327Z,98693.53
2022-09-28T21:36:27.743Z,98696.56
2022-09-28T21:41:25.103Z,98704.22
2022-09-28T21:46:21.790Z,98709.63
2022-09-28T21:51:18.189Z,98707.06
2022-09-28T21:56:14.519Z,98720.66
2022-09-28T22:01:15.390Z,98724.66
2022-09-28T22:06:11.954Z,98719.78
2022-09-28T22:11:14.152Z,98723.13
2022-09-28T22:16:12.439Z,98729.53
2022-09-28T22:21:20.366Z,98734.31
2022-09-28T22:26:23.299Z,98730.59
2022-09-28T22:31:21.616Z,98736.88
2022-09-28T22:36:19.083Z,98740.53
2022-09-28T22:41:17.602Z,98743.06
2022-09-28T22:46:15.441Z,98744.19
2022-09-28T22:51:11.973Z,98744.91
2022-09-28T22:56:09.407Z,98747.25
2022-09-28T23:01:17.779Z,98757.00
2022-09-28T23:06:16.464Z,98759.22
2022-09-28T23:11:13.420Z,98748.38
2022-09-28T23:16:14.663Z,98750.06
2022-09-28T23:21:15.137Z,98756.75
2022-09-28T23:26:14.054Z,98755.06
2022-09-28T23:31:13.327Z,98753.13
2022-09-28T23:36:10.349Z,98757.03
2022-09-28T23:41:06.928Z,98760.34
2022-09-28T23:46:04.531Z,98757.47
2022-09-28T23:51:01.409Z,98758.25
2022-09-28T23:55:57.825Z,98758.72
